sensor_id;sensor_type;location;lat;lon;timestamp;P1;durP1;ratioP1;P2;durP2;ratioP2
29314;SDS011;16320;53.954;9.506;2023-07-29T00:02:56;26.67;;;11.52;;
29314;SDS011;16320;53.954;9.506;2023-07-29T00:06:01;28.90;;;10.25;;
29314;SDS011;16320;53.954;9.506;2023-07-29T00:09:06;26.27;;;10.10;;
29314;SDS011;16320;53.954;9.506;2023-07-29T00:12:11;23.55;;;10.77;;
29314;SDS011;16320;53.954;9.506;2023-07-29T00:15:15;22.15;;;9.55;;
29314;SDS011;16320;53.954;9.506;2023-07-29T00:18:20;23.20;;;10.35;;
29314;SDS011;16320;53.954;9.506;2023-07-29T00:21:24;28.90;;;10.75;;
29314;SDS011;16320;53.954;9.506;2023-07-29T00:24:29;21.63;;;9.75;;
29314;SDS011;16320;53.954;9.506;2023-07-29T00:27:34;23.70;;;10.38;;
29314;SDS011;16320;53.954;9.506;2023-07-29T00:30:38;20.70;;;8.73;;
29314;SDS011;16320;53.954;9.506;2023-07-29T00:33:43;23.20;;;8.02;;
29314;SDS011;16320;53.954;9.506;2023-07-29T00:36:47;20.77;;;8.50;;
29314;SDS011;16320;53.954;9.506;2023-07-29T00:39:52;16.27;;;8.23;;
29314;SDS011;16320;53.954;9.506;2023-07-29T00:42:56;17.65;;;8.77;;
29314;SDS011;16320;53.954;9.506;2023-07-29T00:46:00;19.48;;;8.30;;
29314;SDS011;16320;53.954;9.506;2023-07-29T00:49:05;13.90;;;7.20;;
29314;SDS011;16320;53.954;9.506;2023-07-29T00:52:09;17.13;;;8.40;;
29314;SDS011;16320;53.954;9.506;2023-07-29T00:55:16;18.25;;;9.32;;
29314;SDS011;16320;53.954;9.506;2023-07-29T00:58:21;20.23;;;8.93;;
29314;SDS011;16320;53.954;9.506;2023-07-29T01:01:25;18.70;;;8.20;;
29314;SDS011;16320;53.954;9.506;2023-07-29T01:04:31;17.13;;;7.97;;
29314;SDS011;16320;53.954;9.506;2023-07-29T01:14:46;26.40;;;7.78;;
29314;SDS011;16320;53.954;9.506;2023-07-29T01:18:04;12.00;;;6.07;;
29314;SDS011;16320;53.954;9.506;2023-07-29T01:21:15;17.38;;;7.38;;
29314;SDS011;16320;53.954;9.506;2023-07-29T01:24:20;11.27;;;6.53;;
29314;SDS011;16320;53.954;9.506;2023-07-29T01:27:25;11.70;;;6.90;;
29314;SDS011;16320;53.954;9.506;2023-07-29T01:30:30;13.82;;;6.90;;
29314;SDS011;16320;53.954;9.506;2023-07-29T01:37:09;13.93;;;5.73;;
29314;SDS011;16320;53.954;9.506;2023-07-29T01:40:19;12.18;;;6.93;;
29314;SDS011;16320;53.954;9.506;2023-07-29T01:43:28;11.05;;;5.75;;
29314;SDS011;16320;53.954;9.506;2023-07-29T01:46:34;6.07;;;4.78;;
29314;SDS011;16320;53.954;9.506;2023-07-29T01:49:41;8.10;;;5.13;;
29314;SDS011;16320;53.954;9.506;2023-07-29T01:52:45;6.07;;;4.07;;
29314;SDS011;16320;53.954;9.506;2023-07-29T01:55:51;10.02;;;4.18;;
29314;SDS011;16320;53.954;9.506;2023-07-29T01:58:55;6.10;;;3.35;;
29314;SDS011;16320;53.954;9.506;2023-07-29T02:02:00;8.50;;;3.72;;
29314;SDS011;16320;53.954;9.506;2023-07-29T02:05:04;9.13;;;3.90;;
29314;SDS011;16320;53.954;9.506;2023-07-29T02:08:09;10.50;;;3.78;;
29314;SDS011;16320;53.954;9.506;2023-07-29T02:11:15;7.03;;;4.10;;
29314;SDS011;16320;53.954;9.506;2023-07-29T02:14:20;6.47;;;4.18;;
29314;SDS011;16320;53.954;9.506;2023-07-29T02:20:30;9.10;;;4.20;;
29314;SDS011;16320;53.954;9.506;2023-07-29T02:23:34;6.88;;;4.80;;
29314;SDS011;16320;53.954;9.506;2023-07-29T02:26:39;9.05;;;5.28;;
29314;SDS011;16320;53.954;9.506;2023-07-29T02:29:46;10.00;;;5.30;;
29314;SDS011;16320;53.954;9.506;2023-07-29T02:32:52;8.93;;;5.45;;
29314;SDS011;16320;53.954;9.506;2023-07-29T02:35:56;7.10;;;4.32;;
29314;SDS011;16320;53.954;9.506;2023-07-29T02:39:01;8.73;;;5.30;;
29314;SDS011;16320;53.954;9.506;2023-07-29T02:42:05;14.82;;;7.70;;
29314;SDS011;16320;53.954;9.506;2023-07-29T02:45:10;15.40;;;7.30;;
29314;SDS011;16320;53.954;9.506;2023-07-29T02:48:15;19.02;;;9.02;;
29314;SDS011;16320;53.954;9.506;2023-07-29T02:51:20;19.95;;;10.20;;
29314;SDS011;16320;53.954;9.506;2023-07-29T02:54:24;23.30;;;12.00;;
29314;SDS011;16320;53.954;9.506;2023-07-29T02:57:29;20.75;;;10.73;;
29314;SDS011;16320;53.954;9.506;2023-07-29T03:00:33;24.00;;;12.30;;
29314;SDS011;16320;53.954;9.506;2023-07-29T03:03:37;27.20;;;12.02;;
29314;SDS011;16320;53.954;9.506;2023-07-29T03:06:44;87.20;;;14.80;;
29314;SDS011;16320;53.954;9.506;2023-07-29T03:09:49;58.08;;;11.13;;
29314;SDS011;16320;53.954;9.506;2023-07-29T03:16:08;32.35;;;7.25;;
29314;SDS011;16320;53.954;9.506;2023-07-29T03:19:15;36.42;;;7.63;;
29314;SDS011;16320;53.954;9.506;2023-07-29T03:22:20;24.10;;;6.68;;
29314;SDS011;16320;53.954;9.506;2023-07-29T03:25:24;17.90;;;7.32;;
29314;SDS011;16320;53.954;9.506;2023-07-29T03:28:29;35.63;;;6.25;;
29314;SDS011;16320;53.954;9.506;2023-07-29T03:31:37;23.48;;;6.28;;
29314;SDS011;16320;53.954;9.506;2023-07-29T03:34:42;11.45;;;5.45;;
29314;SDS011;16320;53.954;9.506;2023-07-29T03:37:47;23.30;;;5.97;;
29314;SDS011;16320;53.954;9.506;2023-07-29T03:40:51;27.38;;;5.75;;
29314;SDS011;16320;53.954;9.506;2023-07-29T03:43:57;13.25;;;6.32;;
29314;SDS011;16320;53.954;9.506;2023-07-29T03:47:02;26.13;;;5.60;;
29314;SDS011;16320;53.954;9.506;2023-07-29T03:50:07;23.13;;;6.43;;
29314;SDS011;16320;53.954;9.506;2023-07-29T03:53:12;9.98;;;5.22;;
29314;SDS011;16320;53.954;9.506;2023-07-29T03:56:17;8.43;;;4.72;;
29314;SDS011;16320;53.954;9.506;2023-07-29T03:59:21;8.02;;;4.55;;
29314;SDS011;16320;53.954;9.506;2023-07-29T04:02:26;9.27;;;5.53;;
29314;SDS011;16320;53.954;9.506;2023-07-29T04:05:30;6.93;;;4.15;;
29314;SDS011;16320;53.954;9.506;2023-07-29T04:08:35;9.60;;;5.25;;
29314;SDS011;16320;53.954;9.506;2023-07-29T04:11:39;8.63;;;5.22;;
29314;SDS011;16320;53.954;9.506;2023-07-29T04:14:44;9.63;;;4.55;;
29314;SDS011;16320;53.954;9.506;2023-07-29T04:17:48;12.80;;;5.07;;
29314;SDS011;16320;53.954;9.506;2023-07-29T04:20:53;11.18;;;4.78;;
29314;SDS011;16320;53.954;9.506;2023-07-29T04:23:57;17.40;;;5.28;;
29314;SDS011;16320;53.954;9.506;2023-07-29T04:27:01;6.85;;;4.82;;
29314;SDS011;16320;53.954;9.506;2023-07-29T04:30:06;9.90;;;5.05;;
29314;SDS011;16320;53.954;9.506;2023-07-29T04:33:12;13.70;;;5.22;;
29314;SDS011;16320;53.954;9.506;2023-07-29T04:36:17;9.48;;;4.68;;
29314;SDS011;16320;53.954;9.506;2023-07-29T04:39:21;15.75;;;6.03;;
29314;SDS011;16320;53.954;9.506;2023-07-29T04:42:26;39.50;;;11.02;;
29314;SDS011;16320;53.954;9.506;2023-07-29T04:45:31;35.90;;;14.52;;
29314;SDS011;16320;53.954;9.506;2023-07-29T04:48:35;90.93;;;20.70;;
29314;SDS011;16320;53.954;9.506;2023-07-29T04:51:40;122.43;;;22.48;;
29314;SDS011;16320;53.954;9.506;2023-07-29T04:54:44;121.82;;;24.35;;
29314;SDS011;16320;53.954;9.506;2023-07-29T04:57:48;129.05;;;26.63;;
29314;SDS011;16320;53.954;9.506;2023-07-29T05:00:53;123.43;;;26.08;;
29314;SDS011;16320;53.954;9.506;2023-07-29T05:03:58;144.05;;;31.95;;
29314;SDS011;16320;53.954;9.506;2023-07-29T05:07:02;194.60;;;33.03;;
29314;SDS011;16320;53.954;9.506;2023-07-29T05:10:07;131.30;;;32.83;;
29314;SDS011;16320;53.954;9.506;2023-07-29T05:13:12;223.52;;;34.28;;
29314;SDS011;16320;53.954;9.506;2023-07-29T05:19:20;165.18;;;32.17;;
29314;SDS011;16320;53.954;9.506;2023-07-29T05:22:27;170.50;;;33.08;;
29314;SDS011;16320;53.954;9.506;2023-07-29T05:25:34;210.77;;;33.70;;
29314;SDS011;16320;53.954;9.506;2023-07-29T05:28:40;218.82;;;34.60;;
29314;SDS011;16320;53.954;9.506;2023-07-29T05:31:45;173.52;;;35.25;;
29314;SDS011;16320;53.954;9.506;2023-07-29T05:34:51;242.07;;;36.33;;
29314;SDS011;16320;53.954;9.506;2023-07-29T05:37:58;220.65;;;38.50;;
29314;SDS011;16320;53.954;9.506;2023-07-29T05:41:04;238.90;;;39.05;;
29314;SDS011;16320;53.954;9.506;2023-07-29T05:44:09;158.82;;;36.67;;
29314;SDS011;16320;53.954;9.506;2023-07-29T05:47:14;206.20;;;40.65;;
29314;SDS011;16320;53.954;9.506;2023-07-29T05:50:22;259.85;;;42.72;;
29314;SDS011;16320;53.954;9.506;2023-07-29T05:53:27;267.95;;;39.67;;
29314;SDS011;16320;53.954;9.506;2023-07-29T05:56:31;192.93;;;41.80;;
29314;SDS011;16320;53.954;9.506;2023-07-29T05:59:35;273.10;;;40.55;;
29314;SDS011;16320;53.954;9.506;2023-07-29T06:02:40;178.00;;;41.53;;
29314;SDS011;16320;53.954;9.506;2023-07-29T06:05:48;273.02;;;44.42;;
29314;SDS011;16320;53.954;9.506;2023-07-29T06:09:00;281.13;;;39.83;;
29314;SDS011;16320;53.954;9.506;2023-07-29T06:12:04;244.95;;;42.53;;
29314;SDS011;16320;53.954;9.506;2023-07-29T06:15:09;153.25;;;40.42;;
29314;SDS011;16320;53.954;9.506;2023-07-29T06:18:14;188.07;;;40.83;;
29314;SDS011;16320;53.954;9.506;2023-07-29T06:21:19;188.10;;;39.75;;
29314;SDS011;16320;53.954;9.506;2023-07-29T06:24:24;256.58;;;43.58;;
29314;SDS011;16320;53.954;9.506;2023-07-29T06:27:29;161.43;;;39.30;;
29314;SDS011;16320;53.954;9.506;2023-07-29T06:30:33;169.70;;;41.80;;
29314;SDS011;16320;53.954;9.506;2023-07-29T06:33:37;244.05;;;40.90;;
29314;SDS011;16320;53.954;9.506;2023-07-29T06:36:42;237.70;;;41.22;;
29314;SDS011;16320;53.954;9.506;2023-07-29T06:39:48;194.82;;;42.25;;
29314;SDS011;16320;53.954;9.506;2023-07-29T06:42:53;267.10;;;41.38;;
29314;SDS011;16320;53.954;9.506;2023-07-29T06:45:57;198.73;;;40.95;;
29314;SDS011;16320;53.954;9.506;2023-07-29T06:49:02;181.07;;;39.88;;
29314;SDS011;16320;53.954;9.506;2023-07-29T06:52:20;194.27;;;39.50;;
29314;SDS011;16320;53.954;9.506;2023-07-29T06:55:25;243.75;;;38.40;;
29314;SDS011;16320;53.954;9.506;2023-07-29T06:58:30;199.05;;;36.90;;
29314;SDS011;16320;53.954;9.506;2023-07-29T07:01:34;197.05;;;35.88;;
29314;SDS011;16320;53.954;9.506;2023-07-29T07:04:39;140.82;;;37.05;;
29314;SDS011;16320;53.954;9.506;2023-07-29T07:07:43;152.95;;;36.75;;
29314;SDS011;16320;53.954;9.506;2023-07-29T07:10:48;125.53;;;37.80;;
29314;SDS011;16320;53.954;9.506;2023-07-29T07:13:53;239.15;;;37.13;;
29314;SDS011;16320;53.954;9.506;2023-07-29T07:16:57;178.40;;;37.25;;
29314;SDS011;16320;53.954;9.506;2023-07-29T07:20:02;204.65;;;37.88;;
29314;SDS011;16320;53.954;9.506;2023-07-29T07:23:07;208.45;;;36.85;;
29314;SDS011;16320;53.954;9.506;2023-07-29T07:26:15;175.88;;;36.20;;
29314;SDS011;16320;53.954;9.506;2023-07-29T07:29:20;115.63;;;35.67;;
29314;SDS011;16320;53.954;9.506;2023-07-29T07:32:25;208.88;;;34.55;;
29314;SDS011;16320;53.954;9.506;2023-07-29T07:35:30;212.93;;;35.97;;
29314;SDS011;16320;53.954;9.506;2023-07-29T07:38:35;184.23;;;36.40;;
29314;SDS011;16320;53.954;9.506;2023-07-29T07:41:40;201.35;;;33.42;;
29314;SDS011;16320;53.954;9.506;2023-07-29T07:44:45;176.23;;;35.88;;
29314;SDS011;16320;53.954;9.506;2023-07-29T07:47:51;217.07;;;36.83;;
29314;SDS011;16320;53.954;9.506;2023-07-29T07:50:57;181.07;;;33.45;;
29314;SDS011;16320;53.954;9.506;2023-07-29T07:54:02;181.18;;;38.38;;
29314;SDS011;16320;53.954;9.506;2023-07-29T07:57:07;164.68;;;35.08;;
29314;SDS011;16320;53.954;9.506;2023-07-29T08:00:12;180.57;;;34.90;;
29314;SDS011;16320;53.954;9.506;2023-07-29T08:03:19;141.52;;;36.53;;
29314;SDS011;16320;53.954;9.506;2023-07-29T08:06:24;148.95;;;36.78;;
29314;SDS011;16320;53.954;9.506;2023-07-29T08:09:29;113.88;;;33.80;;
29314;SDS011;16320;53.954;9.506;2023-07-29T08:12:33;104.68;;;34.33;;
29314;SDS011;16320;53.954;9.506;2023-07-29T08:15:38;121.53;;;34.67;;
29314;SDS011;16320;53.954;9.506;2023-07-29T08:18:43;114.55;;;35.00;;
29314;SDS011;16320;53.954;9.506;2023-07-29T08:21:48;189.73;;;37.40;;
29314;SDS011;16320;53.954;9.506;2023-07-29T08:24:52;112.78;;;36.13;;
29314;SDS011;16320;53.954;9.506;2023-07-29T08:27:57;122.65;;;36.08;;
29314;SDS011;16320;53.954;9.506;2023-07-29T08:31:02;186.48;;;36.97;;
29314;SDS011;16320;53.954;9.506;2023-07-29T08:34:07;176.13;;;35.78;;
29314;SDS011;16320;53.954;9.506;2023-07-29T08:37:12;113.00;;;33.97;;
29314;SDS011;16320;53.954;9.506;2023-07-29T08:40:17;164.57;;;34.78;;
29314;SDS011;16320;53.954;9.506;2023-07-29T08:43:25;152.80;;;37.92;;
29314;SDS011;16320;53.954;9.506;2023-07-29T08:46:35;132.88;;;34.05;;
29314;SDS011;16320;53.954;9.506;2023-07-29T08:49:41;106.10;;;31.48;;
29314;SDS011;16320;53.954;9.506;2023-07-29T08:52:46;89.80;;;34.97;;
29314;SDS011;16320;53.954;9.506;2023-07-29T08:55:53;93.38;;;34.55;;
29314;SDS011;16320;53.954;9.506;2023-07-29T08:58:59;72.25;;;34.53;;
29314;SDS011;16320;53.954;9.506;2023-07-29T09:02:06;82.90;;;36.67;;
29314;SDS011;16320;53.954;9.506;2023-07-29T09:05:11;73.10;;;33.50;;
29314;SDS011;16320;53.954;9.506;2023-07-29T09:08:15;69.88;;;33.63;;
29314;SDS011;16320;53.954;9.506;2023-07-29T09:11:21;68.10;;;33.55;;
29314;SDS011;16320;53.954;9.506;2023-07-29T09:14:26;59.67;;;30.73;;
29314;SDS011;16320;53.954;9.506;2023-07-29T09:17:32;60.38;;;30.08;;
29314;SDS011;16320;53.954;9.506;2023-07-29T09:20:37;57.08;;;31.20;;
29314;SDS011;16320;53.954;9.506;2023-07-29T09:23:42;73.63;;;32.13;;
29314;SDS011;16320;53.954;9.506;2023-07-29T09:26:50;55.38;;;30.67;;
29314;SDS011;16320;53.954;9.506;2023-07-29T09:29:57;59.83;;;30.02;;
29314;SDS011;16320;53.954;9.506;2023-07-29T09:33:02;55.00;;;30.58;;
29314;SDS011;16320;53.954;9.506;2023-07-29T09:36:09;68.60;;;31.33;;
29314;SDS011;16320;53.954;9.506;2023-07-29T09:39:14;62.70;;;30.33;;
29314;SDS011;16320;53.954;9.506;2023-07-29T09:42:19;51.53;;;28.65;;
29314;SDS011;16320;53.954;9.506;2023-07-29T09:45:26;55.30;;;29.25;;
29314;SDS011;16320;53.954;9.506;2023-07-29T09:48:38;58.35;;;28.98;;
29314;SDS011;16320;53.954;9.506;2023-07-29T09:51:45;44.00;;;26.77;;
29314;SDS011;16320;53.954;9.506;2023-07-29T09:54:50;45.35;;;26.20;;
29314;SDS011;16320;53.954;9.506;2023-07-29T09:57:56;44.85;;;23.77;;
29314;SDS011;16320;53.954;9.506;2023-07-29T10:01:06;26.25;;;18.88;;
29314;SDS011;16320;53.954;9.506;2023-07-29T10:04:13;38.63;;;22.00;;
29314;SDS011;16320;53.954;9.506;2023-07-29T10:07:19;33.13;;;22.15;;
29314;SDS011;16320;53.954;9.506;2023-07-29T10:10:23;33.13;;;21.33;;
29314;SDS011;16320;53.954;9.506;2023-07-29T10:13:29;37.38;;;22.50;;
29314;SDS011;16320;53.954;9.506;2023-07-29T10:16:36;34.30;;;22.70;;
29314;SDS011;16320;53.954;9.506;2023-07-29T10:19:42;36.35;;;22.58;;
29314;SDS011;16320;53.954;9.506;2023-07-29T10:22:48;34.20;;;20.65;;
29314;SDS011;16320;53.954;9.506;2023-07-29T10:26:05;29.65;;;16.60;;
29314;SDS011;16320;53.954;9.506;2023-07-29T10:29:13;24.08;;;15.05;;
29314;SDS011;16320;53.954;9.506;2023-07-29T10:32:24;17.70;;;13.07;;
29314;SDS011;16320;53.954;9.506;2023-07-29T10:35:33;13.63;;;10.98;;
29314;SDS011;16320;53.954;9.506;2023-07-29T10:38:37;14.63;;;8.93;;
29314;SDS011;16320;53.954;9.506;2023-07-29T10:42:01;9.35;;;7.82;;
29314;SDS011;16320;53.954;9.506;2023-07-29T10:45:18;8.15;;;5.80;;
29314;SDS011;16320;53.954;9.506;2023-07-29T10:51:40;10.38;;;4.35;;
29314;SDS011;16320;53.954;9.506;2023-07-29T10:54:46;7.07;;;3.03;;
29314;SDS011;16320;53.954;9.506;2023-07-29T10:58:03;3.53;;;2.85;;
29314;SDS011;16320;53.954;9.506;2023-07-29T11:01:27;3.97;;;2.53;;
29314;SDS011;16320;53.954;9.506;2023-07-29T11:04:45;2.92;;;2.30;;
29314;SDS011;16320;53.954;9.506;2023-07-29T11:07:56;2.08;;;1.98;;
29314;SDS011;16320;53.954;9.506;2023-07-29T11:11:11;2.67;;;2.35;;
29314;SDS011;16320;53.954;9.506;2023-07-29T11:14:17;2.08;;;1.85;;
29314;SDS011;16320;53.954;9.506;2023-07-29T11:17:24;2.78;;;1.58;;
29314;SDS011;16320;53.954;9.506;2023-07-29T11:20:31;2.65;;;1.50;;
29314;SDS011;16320;53.954;9.506;2023-07-29T11:23:37;3.28;;;2.08;;
29314;SDS011;16320;53.954;9.506;2023-07-29T11:26:46;3.78;;;1.80;;
29314;SDS011;16320;53.954;9.506;2023-07-29T11:29:55;4.30;;;1.77;;
29314;SDS011;16320;53.954;9.506;2023-07-29T11:33:04;4.95;;;1.67;;
29314;SDS011;16320;53.954;9.506;2023-07-29T11:36:17;4.80;;;1.90;;
29314;SDS011;16320;53.954;9.506;2023-07-29T11:39:23;5.95;;;2.20;;
29314;SDS011;16320;53.954;9.506;2023-07-29T11:42:27;6.10;;;2.05;;
29314;SDS011;16320;53.954;9.506;2023-07-29T11:45:32;2.83;;;1.75;;
29314;SDS011;16320;53.954;9.506;2023-07-29T11:48:54;4.07;;;1.77;;
29314;SDS011;16320;53.954;9.506;2023-07-29T11:51:59;5.65;;;2.03;;
29314;SDS011;16320;53.954;9.506;2023-07-29T11:55:05;6.60;;;1.92;;
29314;SDS011;16320;53.954;9.506;2023-07-29T11:58:11;1.95;;;1.83;;
29314;SDS011;16320;53.954;9.506;2023-07-29T12:01:15;4.15;;;2.25;;
29314;SDS011;16320;53.954;9.506;2023-07-29T12:04:20;3.17;;;1.92;;
29314;SDS011;16320;53.954;9.506;2023-07-29T12:07:25;3.92;;;2.30;;
29314;SDS011;16320;53.954;9.506;2023-07-29T12:10:30;4.10;;;2.35;;
29314;SDS011;16320;53.954;9.506;2023-07-29T12:13:38;3.38;;;1.75;;
29314;SDS011;16320;53.954;9.506;2023-07-29T12:16:47;4.40;;;2.25;;
29314;SDS011;16320;53.954;9.506;2023-07-29T12:19:54;3.08;;;1.73;;
29314;SDS011;16320;53.954;9.506;2023-07-29T12:22:59;3.97;;;2.28;;
29314;SDS011;16320;53.954;9.506;2023-07-29T12:26:09;4.38;;;2.03;;
29314;SDS011;16320;53.954;9.506;2023-07-29T12:29:14;5.75;;;2.00;;
29314;SDS011;16320;53.954;9.506;2023-07-29T12:32:20;3.28;;;1.48;;
29314;SDS011;16320;53.954;9.506;2023-07-29T12:35:36;3.08;;;1.50;;
29314;SDS011;16320;53.954;9.506;2023-07-29T12:38:42;1.95;;;1.40;;
29314;SDS011;16320;53.954;9.506;2023-07-29T12:41:48;5.47;;;2.17;;
29314;SDS011;16320;53.954;9.506;2023-07-29T12:44:55;2.55;;;1.90;;
29314;SDS011;16320;53.954;9.506;2023-07-29T12:48:01;3.88;;;2.47;;
29314;SDS011;16320;53.954;9.506;2023-07-29T12:51:12;3.47;;;1.38;;
29314;SDS011;16320;53.954;9.506;2023-07-29T12:54:16;3.70;;;1.92;;
29314;SDS011;16320;53.954;9.506;2023-07-29T12:57:21;2.00;;;1.52;;
29314;SDS011;16320;53.954;9.506;2023-07-29T13:00:28;6.30;;;1.85;;
29314;SDS011;16320;53.954;9.506;2023-07-29T13:03:32;3.83;;;1.73;;
29314;SDS011;16320;53.954;9.506;2023-07-29T13:06:37;4.22;;;1.70;;
29314;SDS011;16320;53.954;9.506;2023-07-29T13:09:42;3.53;;;1.92;;
29314;SDS011;16320;53.954;9.506;2023-07-29T13:12:47;5.80;;;1.60;;
29314;SDS011;16320;53.954;9.506;2023-07-29T13:15:53;1.40;;;1.30;;
29314;SDS011;16320;53.954;9.506;2023-07-29T13:18:58;4.78;;;1.90;;
29314;SDS011;16320;53.954;9.506;2023-07-29T13:22:02;3.88;;;1.70;;
29314;SDS011;16320;53.954;9.506;2023-07-29T13:25:07;7.78;;;2.53;;
29314;SDS011;16320;53.954;9.506;2023-07-29T13:28:12;2.83;;;1.63;;
29314;SDS011;16320;53.954;9.506;2023-07-29T13:31:17;3.58;;;1.55;;
29314;SDS011;16320;53.954;9.506;2023-07-29T13:34:21;4.78;;;1.60;;
29314;SDS011;16320;53.954;9.506;2023-07-29T13:37:26;6.65;;;1.90;;
29314;SDS011;16320;53.954;9.506;2023-07-29T13:40:31;3.83;;;1.80;;
29314;SDS011;16320;53.954;9.506;2023-07-29T13:43:35;2.45;;;1.83;;
29314;SDS011;16320;53.954;9.506;2023-07-29T13:46:39;1.60;;;1.50;;
29314;SDS011;16320;53.954;9.506;2023-07-29T13:49:44;5.03;;;1.70;;
29314;SDS011;16320;53.954;9.506;2023-07-29T13:52:49;3.33;;;1.63;;
29314;SDS011;16320;53.954;9.506;2023-07-29T13:55:53;2.97;;;1.73;;
29314;SDS011;16320;53.954;9.506;2023-07-29T13:58:58;2.97;;;1.80;;
29314;SDS011;16320;53.954;9.506;2023-07-29T14:02:04;4.07;;;1.73;;
29314;SDS011;16320;53.954;9.506;2023-07-29T14:05:10;7.03;;;2.30;;
29314;SDS011;16320;53.954;9.506;2023-07-29T14:08:15;4.13;;;1.73;;
29314;SDS011;16320;53.954;9.506;2023-07-29T14:11:20;4.45;;;2.10;;
29314;SDS011;16320;53.954;9.506;2023-07-29T14:14:24;4.20;;;1.73;;
29314;SDS011;16320;53.954;9.506;2023-07-29T14:17:29;4.35;;;1.92;;
29314;SDS011;16320;53.954;9.506;2023-07-29T14:20:35;5.45;;;1.90;;
29314;SDS011;16320;53.954;9.506;2023-07-29T14:23:41;2.50;;;1.85;;
29314;SDS011;16320;53.954;9.506;2023-07-29T14:26:46;3.20;;;1.85;;
29314;SDS011;16320;53.954;9.506;2023-07-29T14:29:50;4.82;;;2.30;;
29314;SDS011;16320;53.954;9.506;2023-07-29T14:32:55;6.20;;;1.95;;
29314;SDS011;16320;53.954;9.506;2023-07-29T14:36:00;3.50;;;2.15;;
29314;SDS011;16320;53.954;9.506;2023-07-29T14:39:19;4.90;;;1.98;;
29314;SDS011;16320;53.954;9.506;2023-07-29T14:42:23;3.08;;;2.22;;
29314;SDS011;16320;53.954;9.506;2023-07-29T14:45:30;3.67;;;2.15;;
29314;SDS011;16320;53.954;9.506;2023-07-29T14:48:34;3.90;;;2.05;;
29314;SDS011;16320;53.954;9.506;2023-07-29T14:51:39;5.25;;;2.10;;
29314;SDS011;16320;53.954;9.506;2023-07-29T14:54:44;5.10;;;2.58;;
29314;SDS011;16320;53.954;9.506;2023-07-29T14:57:49;6.50;;;2.40;;
29314;SDS011;16320;53.954;9.506;2023-07-29T15:00:53;6.38;;;2.30;;
29314;SDS011;16320;53.954;9.506;2023-07-29T15:03:57;9.77;;;2.55;;
29314;SDS011;16320;53.954;9.506;2023-07-29T15:07:02;7.13;;;2.92;;
29314;SDS011;16320;53.954;9.506;2023-07-29T15:10:06;3.78;;;2.30;;
29314;SDS011;16320;53.954;9.506;2023-07-29T15:13:11;3.97;;;2.15;;
29314;SDS011;16320;53.954;9.506;2023-07-29T15:16:16;8.27;;;2.10;;
29314;SDS011;16320;53.954;9.506;2023-07-29T15:19:20;5.65;;;2.38;;
29314;SDS011;16320;53.954;9.506;2023-07-29T15:22:25;2.58;;;2.05;;
29314;SDS011;16320;53.954;9.506;2023-07-29T15:25:30;4.45;;;1.90;;
29314;SDS011;16320;53.954;9.506;2023-07-29T15:28:35;4.32;;;2.42;;
29314;SDS011;16320;53.954;9.506;2023-07-29T15:31:40;5.68;;;2.05;;
29314;SDS011;16320;53.954;9.506;2023-07-29T15:34:45;5.68;;;2.50;;
29314;SDS011;16320;53.954;9.506;2023-07-29T15:37:49;3.85;;;3.20;;
29314;SDS011;16320;53.954;9.506;2023-07-29T15:40:54;4.93;;;2.85;;
29314;SDS011;16320;53.954;9.506;2023-07-29T15:43:59;7.88;;;2.47;;
29314;SDS011;16320;53.954;9.506;2023-07-29T15:47:04;5.68;;;3.67;;
29314;SDS011;16320;53.954;9.506;2023-07-29T15:50:10;6.00;;;2.88;;
29314;SDS011;16320;53.954;9.506;2023-07-29T15:53:14;6.47;;;2.63;;
29314;SDS011;16320;53.954;9.506;2023-07-29T15:56:19;5.72;;;2.95;;
29314;SDS011;16320;53.954;9.506;2023-07-29T15:59:24;4.13;;;2.60;;
29314;SDS011;16320;53.954;9.506;2023-07-29T16:02:30;9.30;;;2.38;;
29314;SDS011;16320;53.954;9.506;2023-07-29T16:05:35;5.63;;;2.58;;
29314;SDS011;16320;53.954;9.506;2023-07-29T16:08:39;7.68;;;2.97;;
29314;SDS011;16320;53.954;9.506;2023-07-29T16:11:43;6.35;;;3.00;;
29314;SDS011;16320;53.954;9.506;2023-07-29T16:14:49;6.75;;;2.85;;
29314;SDS011;16320;53.954;9.506;2023-07-29T16:17:54;5.93;;;2.72;;
29314;SDS011;16320;53.954;9.506;2023-07-29T16:21:02;5.05;;;2.58;;
29314;SDS011;16320;53.954;9.506;2023-07-29T16:24:06;6.00;;;2.10;;
29314;SDS011;16320;53.954;9.506;2023-07-29T16:27:11;3.67;;;2.50;;
29314;SDS011;16320;53.954;9.506;2023-07-29T16:30:15;6.47;;;2.30;;
29314;SDS011;16320;53.954;9.506;2023-07-29T16:33:20;2.80;;;1.98;;
29314;SDS011;16320;53.954;9.506;2023-07-29T16:36:25;4.47;;;2.05;;
29314;SDS011;16320;53.954;9.506;2023-07-29T16:39:30;7.53;;;2.20;;
29314;SDS011;16320;53.954;9.506;2023-07-29T16:42:34;5.88;;;2.38;;
29314;SDS011;16320;53.954;9.506;2023-07-29T16:45:39;8.20;;;2.00;;
29314;SDS011;16320;53.954;9.506;2023-07-29T16:48:43;5.78;;;1.80;;
29314;SDS011;16320;53.954;9.506;2023-07-29T16:51:48;6.10;;;1.80;;
29314;SDS011;16320;53.954;9.506;2023-07-29T16:54:56;3.95;;;1.98;;
29314;SDS011;16320;53.954;9.506;2023-07-29T16:58:00;5.90;;;1.92;;
29314;SDS011;16320;53.954;9.506;2023-07-29T17:01:05;4.88;;;1.85;;
29314;SDS011;16320;53.954;9.506;2023-07-29T17:04:10;6.40;;;2.00;;
29314;SDS011;16320;53.954;9.506;2023-07-29T17:07:15;3.05;;;1.60;;
29314;SDS011;16320;53.954;9.506;2023-07-29T17:10:20;7.03;;;1.85;;
29314;SDS011;16320;53.954;9.506;2023-07-29T17:13:25;5.47;;;1.60;;
29314;SDS011;16320;53.954;9.506;2023-07-29T17:16:30;2.05;;;1.40;;
29314;SDS011;16320;53.954;9.506;2023-07-29T17:19:35;2.70;;;1.50;;
29314;SDS011;16320;53.954;9.506;2023-07-29T17:22:40;5.32;;;1.52;;
29314;SDS011;16320;53.954;9.506;2023-07-29T17:25:44;5.80;;;1.55;;
29314;SDS011;16320;53.954;9.506;2023-07-29T17:28:48;4.22;;;1.30;;
29314;SDS011;16320;53.954;9.506;2023-07-29T17:31:53;3.53;;;1.50;;
29314;SDS011;16320;53.954;9.506;2023-07-29T17:34:58;3.70;;;1.27;;
29314;SDS011;16320;53.954;9.506;2023-07-29T17:38:02;4.38;;;1.98;;
29314;SDS011;16320;53.954;9.506;2023-07-29T17:41:15;2.85;;;1.40;;
29314;SDS011;16320;53.954;9.506;2023-07-29T17:44:20;6.35;;;1.90;;
29314;SDS011;16320;53.954;9.506;2023-07-29T17:47:25;4.20;;;1.50;;
29314;SDS011;16320;53.954;9.506;2023-07-29T17:50:30;4.68;;;1.50;;
29314;SDS011;16320;53.954;9.506;2023-07-29T17:53:37;9.50;;;1.60;;
29314;SDS011;16320;53.954;9.506;2023-07-29T17:56:41;5.75;;;1.85;;
29314;SDS011;16320;53.954;9.506;2023-07-29T17:59:46;9.70;;;2.20;;
29314;SDS011;16320;53.954;9.506;2023-07-29T18:02:50;3.72;;;1.40;;
29314;SDS011;16320;53.954;9.506;2023-07-29T18:05:56;6.88;;;1.40;;
29314;SDS011;16320;53.954;9.506;2023-07-29T18:09:01;5.25;;;1.60;;
29314;SDS011;16320;53.954;9.506;2023-07-29T18:12:05;6.00;;;2.63;;
29314;SDS011;16320;53.954;9.506;2023-07-29T18:15:10;9.05;;;2.30;;
29314;SDS011;16320;53.954;9.506;2023-07-29T18:18:15;7.28;;;2.03;;
29314;SDS011;16320;53.954;9.506;2023-07-29T18:21:19;5.97;;;2.13;;
29314;SDS011;16320;53.954;9.506;2023-07-29T18:24:24;5.53;;;2.17;;
29314;SDS011;16320;53.954;9.506;2023-07-29T18:27:28;5.68;;;2.13;;
29314;SDS011;16320;53.954;9.506;2023-07-29T18:30:35;4.80;;;2.28;;
29314;SDS011;16320;53.954;9.506;2023-07-29T18:33:40;12.48;;;2.60;;
29314;SDS011;16320;53.954;9.506;2023-07-29T18:36:44;14.65;;;2.97;;
29314;SDS011;16320;53.954;9.506;2023-07-29T18:39:49;7.80;;;2.53;;
29314;SDS011;16320;53.954;9.506;2023-07-29T18:42:54;8.43;;;3.03;;
29314;SDS011;16320;53.954;9.506;2023-07-29T18:45:59;5.57;;;2.35;;